createdAt,value
2019-05-16T00:01:19.240Z,70.80
2019-05-16T00:03:48.976Z,71.80
2019-05-16T00:06:18.004Z,72.60
2019-05-16T00:08:48.132Z,73.00
2019-05-16T00:11:17.986Z,73.90
2019-05-16T00:13:48.805Z,74.80
2019-05-16T00:16:18.792Z,75.00
2019-05-16T00:18:48.099Z,75.70
2019-05-16T00:21:17.965Z,76.40
2019-05-16T00:23:48.564Z,77.10
2019-05-16T00:26:19.841Z,77.50
2019-05-16T00:28:48.729Z,78.90
2019-05-16T00:31:18.387Z,79.50
2019-05-16T00:33:48.681Z,80.30
2019-05-16T00:36:18.894Z,80.90
2019-05-16T00:38:48.579Z,81.70
2019-05-16T00:41:18.061Z,82.50
2019-05-16T00:43:54.076Z,83.20
2019-05-16T00:46:22.875Z,84.50
2019-05-16T00:48:52.034Z,85.40
2019-05-16T00:51:21.137Z,85.90
2019-05-16T00:53:50.223Z,86.90
2019-05-16T00:56:19.125Z,87.30
2019-05-16T00:58:48.491Z,87.60
2019-05-16T01:01:18.992Z,89.70
2019-05-16T01:03:48.429Z,89.50
2019-05-16T01:06:22.515Z,89.70
2019-05-16T01:08:48.744Z,90.00
2019-05-16T01:11:18.584Z,90.00
2019-05-16T01:13:48.696Z,90.20
2019-05-16T01:16:18.678Z,90.40
2019-05-16T01:18:48.696Z,90.90
2019-05-16T01:21:18.580Z,91.00
2019-05-16T01:23:48.364Z,90.80
2019-05-16T01:26:18.608Z,89.40
2019-05-16T01:28:48.565Z,87.80
2019-05-16T01:31:37.947Z,87.10
2019-05-16T01:34:37.820Z,86.10
2019-05-16T01:37:08.278Z,83.80
2019-05-16T01:39:38.190Z,82.80
2019-05-16T01:42:08.000Z,82.40
2019-05-16T01:44:38.179Z,81.70
2019-05-16T01:47:09.011Z,81.30
2019-05-16T01:49:38.179Z,80.20
2019-05-16T01:52:08.488Z,80.10
2019-05-16T01:54:38.859Z,79.40
2019-05-16T01:57:08.209Z,79.50
2019-05-16T01:59:37.987Z,79.10
2019-05-16T02:02:08.337Z,78.70
2019-05-16T02:04:38.085Z,79.10
2019-05-16T02:07:28.276Z,78.60
2019-05-16T02:09:58.276Z,78.50
2019-05-16T02:12:27.750Z,77.70
2019-05-16T02:14:58.660Z,77.20
2019-05-16T02:17:28.921Z,76.50
2019-05-16T02:19:57.902Z,76.90
2019-05-16T02:22:36.045Z,77.20
2019-05-16T02:25:24.191Z,76.90
2019-05-16T02:27:53.249Z,76.60
2019-05-16T02:30:22.276Z,76.80
2019-05-16T02:32:52.208Z,76.40
2019-05-16T02:35:21.426Z,76.30
2019-05-16T02:37:51.681Z,76.40
2019-05-16T02:40:21.261Z,76.50
2019-05-16T02:42:51.431Z,76.60
2019-05-16T02:45:24.125Z,76.70
2019-05-16T02:47:51.436Z,77.20
2019-05-16T02:50:22.385Z,77.70
2019-05-16T02:52:51.682Z,77.80
2019-05-16T02:55:21.611Z,78.30
2019-05-16T02:57:51.137Z,77.90
2019-05-16T03:00:33.000Z,78.30
2019-05-16T03:03:02.330Z,78.10
2019-05-16T03:05:31.291Z,78.90
2019-05-16T03:08:01.286Z,78.60
2019-05-16T03:10:31.141Z,78.10
2019-05-16T03:13:01.128Z,77.60
2019-05-16T03:15:50.943Z,77.80
2019-05-16T03:18:22.200Z,79.20
2019-05-16T03:20:51.261Z,83.20
2019-05-16T03:23:21.765Z,89.30
2019-05-16T03:25:51.190Z,93.50
2019-05-16T03:28:22.148Z,96.70
2019-05-16T03:30:54.382Z,99.60
2019-05-16T03:33:30.763Z,99.90
2019-05-16T03:35:54.709Z,99.90
2019-05-16T03:38:42.376Z,99.90
2019-05-16T03:41:11.655Z,99.90
2019-05-16T03:43:41.340Z,99.90
2019-05-16T03:46:11.756Z,99.90
2019-05-16T03:48:41.135Z,99.90
2019-05-16T03:51:11.307Z,99.90
2019-05-16T03:53:40.828Z,99.50
2019-05-16T03:56:11.185Z,98.50
2019-05-16T03:58:41.727Z,97.70
2019-05-16T04:01:11.895Z,97.20
2019-05-16T04:03:41.563Z,95.90
2019-05-16T04:06:11.967Z,95.00
2019-05-16T04:08:41.577Z,94.30
2019-05-16T04:11:11.799Z,94.40
2019-05-16T04:13:41.573Z,93.50
2019-05-16T04:16:11.861Z,92.80
2019-05-16T04:18:42.160Z,93.10
2019-05-16T04:21:12.008Z,92.90
2019-05-16T04:23:42.045Z,92.40
2019-05-16T04:26:11.575Z,91.70
2019-05-16T04:28:41.473Z,91.00
2019-05-16T04:31:11.069Z,91.00
2019-05-16T04:33:41.547Z,90.50
2019-05-16T04:36:11.342Z,90.30
2019-05-16T04:38:45.356Z,90.20
2019-05-16T04:41:11.590Z,88.40
2019-05-16T04:43:41.684Z,88.50
2019-05-16T04:46:11.762Z,87.30
2019-05-16T04:48:41.709Z,87.40
2019-05-16T04:51:10.977Z,87.10
2019-05-16T04:53:42.499Z,87.00
2019-05-16T04:56:11.370Z,85.70
2019-05-16T04:58:41.037Z,83.60
2019-05-16T05:01:11.126Z,82.40
2019-05-16T05:03:45.859Z,82.40
2019-05-16T05:06:11.561Z,81.30
2019-05-16T05:08:52.984Z,80.20
2019-05-16T05:11:11.079Z,78.70
2019-05-16T05:13:41.276Z,78.50
2019-05-16T05:16:10.838Z,77.50
2019-05-16T05:18:40.906Z,76.90
2019-05-16T05:21:11.591Z,75.60
2019-05-16T05:23:44.630Z,74.90
2019-05-16T05:26:13.445Z,74.60
2019-05-16T05:28:42.934Z,75.00
2019-05-16T05:31:11.846Z,75.70
2019-05-16T05:33:41.752Z,75.80
2019-05-16T05:36:12.397Z,74.50
2019-05-16T05:38:42.239Z,75.00
2019-05-16T05:41:11.169Z,73.90
2019-05-16T05:43:40.061Z,72.80
2019-05-16T05:46:11.136Z,71.50
2019-05-16T05:48:41.076Z,71.50
2019-05-16T05:51:11.301Z,71.20
2019-05-16T05:53:40.880Z,71.00
2019-05-16T05:56:13.030Z,70.40
2019-05-16T05:58:46.175Z,70.40
2019-05-16T06:01:15.266Z,70.60
2019-05-16T06:03:44.142Z,70.10
2019-05-16T06:06:12.928Z,69.80
2019-05-16T06:08:41.755Z,71.00
2019-05-16T06:11:10.745Z,69.30
2019-05-16T06:13:40.445Z,69.30
2019-05-16T06:16:10.852Z,68.40
2019-05-16T06:18:39.795Z,68.20
2019-05-16T06:21:11.243Z,67.60
2019-05-16T06:23:40.305Z,68.10
2019-05-16T06:26:12.164Z,68.60
2019-05-16T06:28:41.296Z,68.40
2019-05-16T06:31:14.114Z,68.40
2019-05-16T06:33:41.286Z,67.90
2019-05-16T06:36:11.046Z,68.20
2019-05-16T06:38:40.590Z,68.50
2019-05-16T06:41:10.677Z,68.80
2019-05-16T06:43:40.069Z,69.60
2019-05-16T06:46:11.020Z,69.20
2019-05-16T06:48:39.955Z,68.80
2019-05-16T06:51:10.784Z,68.30
2019-05-16T06:53:40.486Z,68.50
2019-05-16T06:56:10.471Z,69.70
2019-05-16T06:58:47.606Z,69.90
2019-05-16T07:01:10.512Z,69.80
2019-05-16T07:03:40.110Z,70.20
2019-05-16T07:06:11.045Z,70.90
2019-05-16T07:08:40.390Z,70.90
2019-05-16T07:11:10.550Z,71.40
2019-05-16T07:13:40.665Z,71.20
2019-05-16T07:16:09.807Z,70.40
2019-05-16T07:18:40.218Z,70.90
2019-05-16T07:21:10.897Z,71.10
2019-05-16T07:23:40.579Z,71.00
2019-05-16T07:26:09.929Z,70.50
2019-05-16T07:28:40.693Z,69.90
2019-05-16T07:31:17.707Z,69.20
2019-05-16T07:33:40.806Z,67.50
2019-05-16T07:36:10.011Z,65.80
2019-05-16T07:38:40.018Z,65.00
2019-05-16T07:41:11.115Z,65.00
2019-05-16T07:43:40.151Z,65.60
2019-05-16T07:46:11.169Z,64.90
2019-05-16T07:48:40.351Z,63.80
2019-05-16T07:51:10.291Z,62.60
2019-05-16T07:53:40.404Z,63.30
2019-05-16T07:56:10.585Z,64.00
2019-05-16T07:58:41.387Z,63.80
2019-05-16T08:01:12.517Z,63.90
2019-05-16T08:03:43.988Z,63.80
2019-05-16T08:06:11.416Z,64.50
2019-05-16T08:08:40.455Z,64.80
2019-05-16T08:11:12.240Z,65.00
2019-05-16T08:13:40.224Z,65.20
2019-05-16T08:16:10.172Z,65.20
2019-05-16T08:18:44.734Z,66.50
2019-05-16T08:21:11.402Z,68.20
2019-05-16T08:23:41.237Z,69.60
2019-05-16T08:26:10.562Z,69.40
2019-05-16T08:28:41.376Z,68.10
2019-05-16T08:31:11.801Z,67.00
2019-05-16T08:36:11.895Z,67.80
2019-05-16T08:38:43.363Z,68.10
2019-05-16T08:41:31.708Z,68.30
2019-05-16T08:44:01.271Z,69.20
2019-05-16T08:46:32.292Z,70.20
2019-05-16T08:49:01.274Z,70.60
2019-05-16T08:54:01.729Z,75.20
2019-05-16T08:56:31.689Z,78.20
2019-05-16T08:59:04.031Z,79.50
2019-05-16T09:01:34.949Z,79.90
2019-05-16T09:04:02.436Z,81.40
2019-05-16T09:06:32.166Z,84.50
2019-05-16T09:09:20.442Z,87.30
2019-05-16T09:10:28.428Z,67.10
2019-05-16T09:11:41.414Z,91.10
2019-05-16T09:14:02.601Z,92.90
2019-05-16T09:16:48.011Z,94.30
2019-05-16T09:18:30.746Z,72.50
2019-05-16T09:19:17.108Z,96.30
2019-05-16T09:21:47.459Z,98.60
2019-05-16T09:24:17.868Z,99.90
2019-05-16T09:26:47.570Z,99.90
2019-05-16T09:29:16.842Z,99.90
2019-05-16T09:32:07.242Z,99.90
2019-05-16T09:34:17.536Z,99.90
2019-05-16T09:36:48.116Z,99.90
2019-05-16T09:39:17.488Z,99.90
2019-05-16T09:41:50.477Z,99.90
2019-05-16T09:44:18.357Z,99.90
2019-05-16T09:46:47.536Z,99.90
2019-05-16T09:49:23.916Z,99.90
2019-05-16T09:51:47.258Z,99.90
2019-05-16T09:54:16.895Z,99.90
2019-05-16T09:56:46.426Z,99.90
2019-05-16T09:59:17.206Z,99.90
2019-05-16T10:01:47.813Z,99.90
2019-05-16T10:04:17.461Z,99.90
2019-05-16T10:06:47.764Z,99.90
2019-05-16T10:09:17.553Z,99.90
2019-05-16T10:12:14.756Z,99.90
2019-05-16T10:14:37.827Z,99.90
2019-05-16T10:17:08.097Z,99.90
2019-05-16T10:19:37.316Z,99.90
2019-05-16T10:22:07.332Z,99.90
2019-05-16T10:24:37.530Z,99.90
2019-05-16T10:27:06.756Z,99.90
2019-05-16T10:29:37.743Z,99.90
2019-05-16T10:32:27.390Z,99.90
2019-05-16T10:34:57.267Z,99.90
2019-05-16T10:37:47.049Z,99.90
2019-05-16T10:40:18.267Z,99.90
2019-05-16T10:42:47.213Z,99.90
2019-05-16T10:45:16.677Z,99.90
2019-05-16T10:47:48.147Z,99.90
2019-05-16T10:50:36.942Z,99.90
2019-05-16T10:53:23.711Z,99.90
2019-05-16T10:55:57.192Z,99.90
2019-05-16T10:58:36.444Z,99.90
2019-05-16T11:01:15.643Z,99.90
2019-05-16T11:03:27.900Z,99.90
2019-05-16T11:06:05.502Z,99.90
2019-05-16T11:08:28.338Z,99.90
2019-05-16T11:10:57.494Z,99.90
2019-05-16T11:13:27.947Z,99.90
2019-05-16T11:15:57.425Z,99.90
2019-05-16T11:18:27.157Z,99.90
2019-05-16T11:20:58.142Z,99.90
2019-05-16T11:23:30.754Z,99.90
2019-05-16T11:25:58.399Z,99.90
2019-05-16T11:28:27.749Z,99.90
2019-05-16T11:31:02.919Z,99.90
2019-05-16T11:33:28.111Z,99.90
2019-05-16T11:35:57.764Z,99.90
2019-05-16T11:38:26.647Z,99.90
2019-05-16T11:40:56.832Z,99.90
2019-05-16T11:43:27.697Z,99.90
2019-05-16T11:45:57.338Z,99.90
2019-05-16T11:48:29.063Z,99.90
2019-05-16T11:50:57.047Z,99.90
2019-05-16T11:53:28.259Z,99.90
2019-05-16T11:56:01.199Z,99.90
2019-05-16T11:58:27.084Z,99.90
2019-05-16T12:00:57.510Z,99.90
2019-05-16T12:03:28.187Z,99.90
2019-05-16T12:05:58.093Z,99.90
2019-05-16T12:08:27.347Z,99.90
2019-05-16T12:11:14.538Z,99.90
2019-05-16T12:13:43.492Z,99.90
2019-05-16T12:16:15.166Z,99.90
2019-05-16T12:18:42.859Z,99.90
2019-05-16T12:21:11.761Z,99.90
2019-05-16T12:23:40.651Z,99.90
2019-05-16T12:26:09.750Z,99.90
2019-05-16T12:28:38.771Z,99.90
2019-05-16T12:31:07.955Z,99.90
2019-05-16T12:33:37.607Z,99.90
2019-05-16T12:36:07.409Z,99.90
2019-05-16T12:38:38.054Z,99.90
2019-05-16T12:41:07.697Z,99.90
2019-05-16T12:43:46.159Z,99.90
2019-05-16T12:46:07.642Z,99.90
2019-05-16T12:48:37.305Z,99.90
2019-05-16T12:51:08.631Z,99.90
2019-05-16T12:53:37.391Z,99.90
2019-05-16T12:56:06.263Z,99.90
2019-05-16T12:58:42.090Z,99.90
2019-05-16T13:01:07.687Z,99.90
2019-05-16T13:03:37.791Z,99.90
2019-05-16T13:06:06.951Z,99.90
2019-05-16T13:08:37.452Z,99.90
2019-05-16T13:11:07.053Z,99.90
2019-05-16T13:14:03.325Z,99.90
2019-05-16T13:16:28.209Z,99.90
2019-05-16T13:18:56.808Z,99.90
2019-05-16T13:21:27.576Z,99.90
2019-05-16T13:23:57.589Z,99.90
2019-05-16T13:26:26.960Z,99.90
2019-05-16T13:28:57.771Z,99.90
2019-05-16T13:31:28.622Z,99.90
2019-05-16T13:33:57.355Z,99.90
2019-05-16T13:36:27.187Z,99.90
2019-05-16T13:38:57.373Z,99.90
2019-05-16T13:41:27.137Z,99.90
2019-05-16T13:43:56.308Z,99.90
2019-05-16T13:46:26.577Z,99.90
2019-05-16T13:48:55.679Z,99.90
2019-05-16T13:51:26.638Z,99.90
2019-05-16T13:53:55.619Z,99.90
2019-05-16T13:56:27.199Z,99.90
2019-05-16T13:58:57.016Z,99.90
2019-05-16T14:01:27.800Z,99.90
2019-05-16T14:03:57.398Z,99.90
2019-05-16T14:06:26.324Z,99.90
2019-05-16T14:08:56.758Z,99.90
2019-05-16T14:11:25.915Z,99.90
2019-05-16T14:13:56.382Z,99.90
2019-05-16T14:16:26.929Z,99.90
2019-05-16T14:18:57.379Z,99.90
2019-05-16T14:21:26.466Z,99.90
2019-05-16T14:23:56.896Z,99.90
2019-05-16T14:26:25.903Z,99.90
2019-05-16T14:28:57.755Z,99.90
2019-05-16T14:31:30.912Z,99.90
2019-05-16T14:33:59.748Z,99.90
2019-05-16T14:36:28.570Z,99.90
2019-05-16T14:38:58.289Z,99.90
2019-05-16T15:16:31.746Z,99.90
2019-05-16T15:19:00.897Z,99.90
2019-05-16T15:21:29.933Z,99.90
2019-05-16T15:23:59.695Z,99.90
2019-05-16T15:26:28.713Z,99.90
2019-05-16T15:28:58.993Z,99.90
2019-05-16T15:31:28.458Z,99.90
2019-05-16T15:33:57.399Z,99.90
2019-05-16T15:36:27.064Z,99.90
2019-05-16T15:38:59.417Z,99.90
2019-05-16T15:41:27.381Z,99.90
2019-05-16T18:23:27.689Z,99.90
2019-05-16T21:01:49.288Z,99.90
2019-05-16T21:04:18.242Z,99.90
2019-05-16T21:06:58.941Z,99.90
2019-05-16T21:09:18.269Z,99.90
2019-05-16T21:11:49.931Z,99.90
2019-05-16T21:14:17.697Z,99.90
2019-05-16T21:16:49.480Z,99.90
2019-05-16T21:19:17.311Z,99.90
2019-05-16T21:21:47.089Z,99.90
2019-05-16T21:24:16.072Z,99.90
2019-05-16T21:26:46.199Z,99.90
2019-05-16T21:29:16.548Z,99.90
2019-05-16T21:31:47.273Z,99.90
2019-05-16T21:34:19.078Z,99.90
2019-05-16T21:36:47.016Z,99.90
2019-05-16T21:39:17.603Z,99.90
2019-05-16T21:41:47.253Z,99.90
2019-05-16T21:44:17.102Z,99.90
2019-05-16T21:46:46.929Z,99.90
2019-05-16T21:49:16.899Z,99.90
2019-05-16T21:51:47.171Z,99.90
2019-05-16T21:54:16.006Z,99.90
2019-05-16T21:56:46.755Z,99.90
2019-05-16T21:59:15.496Z,99.90
2019-05-16T22:01:44.317Z,99.90
2019-05-16T22:04:32.472Z,99.90
2019-05-16T22:07:01.823Z,99.90
2019-05-16T22:09:30.707Z,99.90
2019-05-16T22:11:59.580Z,99.90
2019-05-16T22:14:36.744Z,99.90
2019-05-16T22:17:06.454Z,99.90
2019-05-16T22:19:36.211Z,99.90
2019-05-16T22:22:07.300Z,99.90
2019-05-16T22:24:37.153Z,99.90
2019-05-16T22:27:06.830Z,99.90
2019-05-16T22:29:37.115Z,99.90
2019-05-16T22:32:07.137Z,99.90
2019-05-16T22:34:56.975Z,99.90
2019-05-16T22:37:26.716Z,99.90
2019-05-16T22:40:17.054Z,99.90
2019-05-16T22:42:46.901Z,99.90
2019-05-16T22:45:19.207Z,99.90
2019-05-16T22:47:48.139Z,99.90
2019-05-16T22:50:17.738Z,99.90
2019-05-16T22:52:46.663Z,99.90
2019-05-16T22:55:16.987Z,99.90
2019-05-16T22:57:47.297Z,99.90
2019-05-16T23:00:22.477Z,99.90
2019-05-16T23:02:51.279Z,99.90
2019-05-16T23:05:20.449Z,99.90
2019-05-16T23:08:02.131Z,99.90
2019-05-16T23:10:19.932Z,99.90
2019-05-16T23:12:48.746Z,99.90
2019-05-16T23:15:18.006Z,99.90
2019-05-16T23:17:47.139Z,99.90
2019-05-16T23:20:17.128Z,99.90
2019-05-16T23:22:47.027Z,99.90
2019-05-16T23:25:17.118Z,99.90
2019-05-16T23:27:47.385Z,99.90
2019-05-16T23:30:17.676Z,99.90
2019-05-16T23:32:47.237Z,99.90
2019-05-16T23:35:16.442Z,99.90
2019-05-16T23:37:46.403Z,99.90
2019-05-16T23:40:15.494Z,99.90
2019-05-16T23:42:46.395Z,99.90
2019-05-16T23:45:17.187Z,99.90
2019-05-16T23:47:47.074Z,99.90
2019-05-16T23:50:17.138Z,99.90
2019-05-16T23:53:07.296Z,99.90
2019-05-16T23:55:37.181Z,99.90
2019-05-16T23:58:07.109Z,99.90
